Huade, China
Current Conditions -  °F | °C
As of 11:00 PM on Wednesday 22 Oct 2014 (Local Time) from ZBHH Reporting Station
Clear Clear  
Wind Chill: 41°   Ceiling: Unl
Heat Index: 45°   Visibility: 4mi
Dew Point: 32°   Wind: 7mph
Humidity: 61%   Direction: 70°ENE
Pressure: 30.06"   Gusts: NA
Location:  41.9°N, 114°E
Report Text: ZBHH 221500Z 07003MPS 7000 NSC 07/00 Q1018 NOSIG
Loading
Personal Weather Stations






























Interactive Weather Map
Tropical Storm Tracking
New forecast layout! Learn more

10-Day Weather Forecast

Advertisements
Track Severe Weather on mobile